createdAt,value
2018-09-18T00:01:05.130Z,16.03
2018-09-18T00:03:32.460Z,15.98
2018-09-18T00:05:59.364Z,15.93
2018-09-18T00:08:26.211Z,15.75
2018-09-18T00:10:53.144Z,16.00
2018-09-18T00:13:20.103Z,16.04
2018-09-18T00:15:47.038Z,16.10
2018-09-18T00:18:13.923Z,16.00
2018-09-18T00:20:40.885Z,16.09
2018-09-18T00:23:07.841Z,15.91
2018-09-18T00:25:35.391Z,15.67
2018-09-18T00:28:02.271Z,15.44
2018-09-18T00:30:29.122Z,15.15
2018-09-18T00:32:55.993Z,15.15
2018-09-18T00:35:22.923Z,15.19
2018-09-18T00:37:49.906Z,15.17
2018-09-18T00:40:17.804Z,15.21
2018-09-18T00:42:44.731Z,15.32
2018-09-18T00:45:11.708Z,15.34
2018-09-18T00:47:38.676Z,15.19
2018-09-18T00:50:05.638Z,14.78
2018-09-18T00:52:32.578Z,14.97
2018-09-18T00:54:59.518Z,15.23
2018-09-18T00:57:26.491Z,15.25
2018-09-18T00:59:53.447Z,15.10
2018-09-18T01:02:20.409Z,14.90
2018-09-18T01:04:47.362Z,14.79
2018-09-18T01:07:14.295Z,14.71
2018-09-18T01:09:41.259Z,14.76
2018-09-18T01:12:08.219Z,14.71
2018-09-18T01:14:35.880Z,14.92
2018-09-18T01:17:02.772Z,14.84
2018-09-18T01:19:29.717Z,14.76
2018-09-18T01:21:56.655Z,14.74
2018-09-18T01:24:23.611Z,14.84
2018-09-18T01:26:50.594Z,14.64
2018-09-18T01:29:17.531Z,14.65
2018-09-18T01:31:44.499Z,15.38
2018-09-18T01:34:11.484Z,15.24
2018-09-18T01:36:38.391Z,14.54
2018-09-18T01:39:06.547Z,14.74
2018-09-18T01:41:33.755Z,14.76
2018-09-18T01:44:00.856Z,15.45
2018-09-18T01:46:27.726Z,14.75
2018-09-18T01:48:54.679Z,14.57
2018-09-18T01:51:21.616Z,15.04
2018-09-18T01:53:48.553Z,14.26
2018-09-18T01:56:15.521Z,14.41
2018-09-18T01:58:43.507Z,14.47
2018-09-18T02:01:10.443Z,15.11
2018-09-18T02:03:39.391Z,14.61
2018-09-18T02:06:06.327Z,14.46
2018-09-18T02:08:33.207Z,14.82
2018-09-18T02:11:00.128Z,14.23
2018-09-18T02:13:27.096Z,14.31
2018-09-18T02:15:54.038Z,14.20
2018-09-18T02:18:20.983Z,14.31
2018-09-18T02:20:47.939Z,14.09
2018-09-18T02:23:14.907Z,14.08
2018-09-18T02:25:41.889Z,14.69
2018-09-18T02:28:08.823Z,14.13
2018-09-18T02:30:35.707Z,13.95
2018-09-18T02:33:02.649Z,13.92
2018-09-18T02:35:29.595Z,13.99
2018-09-18T02:37:56.547Z,14.01
2018-09-18T02:40:24.426Z,14.01
2018-09-18T02:42:51.421Z,14.11
2018-09-18T02:45:18.284Z,14.34
2018-09-18T02:47:46.243Z,14.17
2018-09-18T02:50:13.205Z,14.38
2018-09-18T02:52:40.140Z,14.19
2018-09-18T02:55:07.095Z,14.28
2018-09-18T02:57:34.067Z,14.05
2018-09-18T03:00:01.025Z,13.76
2018-09-18T03:02:27.989Z,13.48
2018-09-18T03:04:54.924Z,13.40
2018-09-18T03:07:21.887Z,14.02
2018-09-18T03:09:48.868Z,14.25
2018-09-18T03:12:16.845Z,13.80
2018-09-18T03:14:43.725Z,13.76
2018-09-18T03:17:10.646Z,13.79
2018-09-18T03:19:38.627Z,13.88
2018-09-18T03:22:05.582Z,13.84
2018-09-18T03:24:32.610Z,13.92
2018-09-18T03:26:59.521Z,13.71
2018-09-18T03:29:26.383Z,13.63
2018-09-18T03:31:53.509Z,13.64
2018-09-18T03:34:20.468Z,13.82
2018-09-18T03:36:47.416Z,13.71
2018-09-18T03:39:14.430Z,13.53
2018-09-18T03:41:41.368Z,13.22
2018-09-18T03:44:09.257Z,13.04
2018-09-18T03:46:36.196Z,12.89
2018-09-18T03:49:03.246Z,12.94
2018-09-18T03:51:30.200Z,12.89
2018-09-18T03:53:57.235Z,12.93
2018-09-18T03:56:24.279Z,12.73
2018-09-18T03:58:51.177Z,12.77
2018-09-18T04:01:18.154Z,12.55
2018-09-18T04:03:45.113Z,12.58
2018-09-18T04:06:12.036Z,13.39
2018-09-18T04:08:38.990Z,13.15
2018-09-18T04:11:05.960Z,12.97
2018-09-18T04:13:32.896Z,13.14
2018-09-18T04:15:59.772Z,13.17
2018-09-18T04:18:26.855Z,13.25
2018-09-18T04:20:54.008Z,13.21
2018-09-18T04:23:20.942Z,13.96
2018-09-18T04:25:47.916Z,13.44
2018-09-18T04:28:14.876Z,13.25
2018-09-18T04:30:41.819Z,13.07
2018-09-18T04:33:08.830Z,12.98
2018-09-18T04:35:35.737Z,12.57
2018-09-18T04:38:02.668Z,12.44
2018-09-18T04:40:30.576Z,12.42
2018-09-18T04:42:57.531Z,12.37
2018-09-18T04:45:24.483Z,12.10
2018-09-18T04:47:51.435Z,12.14
2018-09-18T04:50:18.296Z,12.33
2018-09-18T04:52:45.274Z,12.53
2018-09-18T04:55:12.215Z,12.47
2018-09-18T04:57:39.155Z,12.38
2018-09-18T05:00:06.399Z,12.37
2018-09-18T05:02:33.303Z,12.64
2018-09-18T05:05:00.215Z,12.64
2018-09-18T05:07:27.090Z,12.63
2018-09-18T05:09:53.976Z,12.57
2018-09-18T05:12:20.895Z,12.72
2018-09-18T05:14:47.851Z,12.74
2018-09-18T05:17:14.847Z,13.43
2018-09-18T05:19:41.772Z,13.18
2018-09-18T05:22:08.735Z,13.03
2018-09-18T05:24:35.602Z,13.23
2018-09-18T05:27:02.539Z,13.24
2018-09-18T05:29:29.491Z,13.37
2018-09-18T05:31:56.524Z,13.49
2018-09-18T05:34:23.516Z,13.46
2018-09-18T05:36:50.493Z,13.48
2018-09-18T05:39:17.419Z,13.56
2018-09-18T05:41:44.387Z,13.34
2018-09-18T05:44:11.344Z,13.43
2018-09-18T05:46:38.310Z,13.67
2018-09-18T05:49:05.552Z,13.64
2018-09-18T05:51:32.431Z,13.65
2018-09-18T05:53:59.441Z,13.48
2018-09-18T05:56:27.388Z,14.05
2018-09-18T05:58:54.371Z,14.43
2018-09-18T06:01:22.328Z,13.91
2018-09-18T06:03:49.252Z,13.85
2018-09-18T06:06:16.215Z,13.84
2018-09-18T06:08:43.167Z,14.00
2018-09-18T06:11:10.129Z,14.32
2018-09-18T06:13:37.087Z,14.39
2018-09-18T06:16:04.039Z,14.50
2018-09-18T06:18:31.021Z,14.65
2018-09-18T06:20:57.953Z,14.69
2018-09-18T06:23:24.927Z,14.86
2018-09-18T06:25:51.904Z,15.07
2018-09-18T06:28:18.835Z,15.20
2018-09-18T06:30:45.687Z,15.29
2018-09-18T06:33:12.643Z,15.43
2018-09-18T06:35:39.652Z,15.59
2018-09-18T06:38:06.516Z,15.73
2018-09-18T06:40:33.455Z,15.82
2018-09-18T06:43:00.389Z,16.64
2018-09-18T06:45:27.329Z,17.00
2018-09-18T06:47:54.382Z,16.69
2018-09-18T06:50:21.578Z,16.69
2018-09-18T06:52:48.525Z,16.79
2018-09-18T06:55:15.470Z,16.86
2018-09-18T06:57:42.756Z,17.06
2018-09-18T07:00:09.619Z,17.02
2018-09-18T07:02:36.539Z,17.55
2018-09-18T07:05:03.532Z,17.42
2018-09-18T07:07:30.516Z,17.45
2018-09-18T07:09:57.429Z,17.59
2018-09-18T07:12:24.427Z,17.74
2018-09-18T07:14:51.331Z,17.64
2018-09-18T07:17:18.340Z,17.66
2018-09-18T07:19:45.319Z,17.86
2018-09-18T07:22:12.183Z,18.45
2018-09-18T07:24:39.083Z,18.58
2018-09-18T07:27:06.023Z,18.66
2018-09-18T07:29:32.898Z,19.16
2018-09-18T07:31:59.955Z,19.11
2018-09-18T07:34:26.891Z,19.10
2018-09-18T07:36:53.859Z,19.25
2018-09-18T07:39:20.799Z,19.38
2018-09-18T07:41:47.785Z,19.55
2018-09-18T07:44:14.648Z,19.66
2018-09-18T07:46:41.615Z,19.85
2018-09-18T07:49:08.527Z,20.10
2018-09-18T07:51:35.607Z,20.24
2018-09-18T07:54:02.843Z,20.15
2018-09-18T07:56:30.203Z,20.40
2018-09-18T07:58:57.371Z,20.47
2018-09-18T08:01:24.340Z,20.61
2018-09-18T08:03:51.303Z,20.75
2018-09-18T08:06:18.176Z,20.99
2018-09-18T08:08:45.152Z,20.86
2018-09-18T08:11:12.008Z,20.74
2018-09-18T08:13:38.918Z,20.87
2018-09-18T08:16:05.879Z,21.18
2018-09-18T08:18:32.839Z,21.28
2018-09-18T08:20:59.836Z,21.12
2018-09-18T08:23:26.771Z,21.07
2018-09-18T08:25:53.711Z,21.16
2018-09-18T08:28:20.580Z,21.38
2018-09-18T08:30:47.535Z,21.67
2018-09-18T08:33:14.487Z,21.82
2018-09-18T08:35:41.474Z,21.71
2018-09-18T08:38:08.404Z,22.12
2018-09-18T08:40:35.273Z,21.97
2018-09-18T08:43:02.240Z,22.16
2018-09-18T08:45:29.190Z,22.41
2018-09-18T08:47:56.203Z,22.64
2018-09-18T08:50:23.107Z,22.37
2018-09-18T08:52:49.987Z,23.03
2018-09-18T08:55:16.905Z,23.44
2018-09-18T08:57:43.920Z,23.37
2018-09-18T09:00:10.848Z,23.74
2018-09-18T09:02:37.789Z,23.93
2018-09-18T09:05:04.741Z,24.55
2018-09-18T09:07:31.749Z,24.78
2018-09-18T09:09:58.694Z,24.65
2018-09-18T09:12:25.619Z,24.62
2018-09-18T09:14:52.661Z,24.88
2018-09-18T09:17:19.590Z,24.77
2018-09-18T09:19:46.491Z,24.77
2018-09-18T09:22:13.576Z,25.40
2018-09-18T09:24:40.483Z,25.74
2018-09-18T09:27:07.336Z,25.93
2018-09-18T09:29:34.404Z,26.20
2018-09-18T09:32:01.369Z,26.08
2018-09-18T09:34:28.188Z,26.31
2018-09-18T09:36:55.150Z,26.18
2018-09-18T09:39:22.024Z,25.61
2018-09-18T09:41:49.007Z,26.02
2018-09-18T09:44:16.008Z,26.44
2018-09-18T09:46:42.906Z,26.43
2018-09-18T09:49:09.804Z,26.65
2018-09-18T09:51:36.767Z,26.78
2018-09-18T09:54:03.675Z,26.85
2018-09-18T09:56:30.651Z,26.76
2018-09-18T09:58:57.519Z,26.72
2018-09-18T10:01:46.948Z,26.72
2018-09-18T10:04:13.964Z,26.97
2018-09-18T10:06:40.907Z,26.82
2018-09-18T10:09:09.477Z,26.81
2018-09-18T10:11:36.459Z,26.81
2018-09-18T10:14:03.426Z,27.18
2018-09-18T10:16:30.370Z,26.58
2018-09-18T10:18:57.244Z,27.07
2018-09-18T10:21:24.119Z,26.92
2018-09-18T10:23:51.044Z,26.79
2018-09-18T10:26:18.227Z,27.78
2018-09-18T10:28:44.950Z,28.17
2018-09-18T10:31:11.950Z,27.61
2018-09-18T10:33:38.843Z,27.32
2018-09-18T10:36:05.804Z,27.77
2018-09-18T10:38:32.801Z,27.60
2018-09-18T10:40:59.755Z,27.49
2018-09-18T10:43:26.707Z,27.99
2018-09-18T10:45:53.627Z,28.05
2018-09-18T10:48:20.589Z,28.19
2018-09-18T10:50:47.571Z,28.09
2018-09-18T10:53:14.576Z,27.95
2018-09-18T10:55:41.460Z,27.58
2018-09-18T10:58:08.419Z,28.09
2018-09-18T11:00:35.317Z,28.42
2018-09-18T11:03:02.290Z,28.53
2018-09-18T11:05:29.173Z,28.95
2018-09-18T11:07:56.107Z,29.05
2018-09-18T11:10:23.083Z,28.70
2018-09-18T11:12:49.978Z,28.96
2018-09-18T11:15:17.074Z,28.81
2018-09-18T11:17:43.900Z,28.86
2018-09-18T11:20:10.956Z,29.23
2018-09-18T11:22:37.802Z,29.20
2018-09-18T11:25:04.782Z,29.41
2018-09-18T11:27:31.819Z,29.06
2018-09-18T11:29:58.800Z,28.51
2018-09-18T11:32:25.731Z,28.56
2018-09-18T11:34:52.708Z,28.59
2018-09-18T11:37:19.684Z,28.73
2018-09-18T11:39:46.623Z,28.35
2018-09-18T11:42:13.620Z,28.81
2018-09-18T11:44:40.610Z,29.08
2018-09-18T11:47:07.581Z,28.95
2018-09-18T11:49:34.445Z,28.89
2018-09-18T11:52:01.428Z,29.22
2018-09-18T11:54:28.365Z,29.12
2018-09-18T11:56:55.308Z,29.23
2018-09-18T11:59:22.263Z,29.38
2018-09-18T12:01:49.210Z,28.97
2018-09-18T12:04:16.208Z,28.98
2018-09-18T12:06:43.162Z,29.22
2018-09-18T12:09:10.877Z,29.52
2018-09-18T12:11:37.765Z,29.01
2018-09-18T12:14:04.883Z,29.45
2018-09-18T12:16:31.800Z,29.60
2018-09-18T12:18:58.848Z,29.93
2018-09-18T12:21:25.794Z,29.94
2018-09-18T12:23:52.768Z,29.75
2018-09-18T12:26:19.712Z,29.51
2018-09-18T12:28:46.946Z,29.87
2018-09-18T12:31:13.819Z,29.93
2018-09-18T12:33:40.691Z,29.48
2018-09-18T12:36:07.831Z,29.44
2018-09-18T12:38:34.714Z,29.18
2018-09-18T12:41:01.659Z,29.94
2018-09-18T12:43:28.543Z,29.90
2018-09-18T12:45:55.471Z,29.56
2018-09-18T12:48:22.435Z,29.40
2018-09-18T12:50:49.478Z,29.47
2018-09-18T12:53:16.381Z,29.52
2018-09-18T12:55:43.321Z,29.56
2018-09-18T12:58:10.327Z,29.29
2018-09-18T13:00:37.268Z,29.64
2018-09-18T13:03:04.228Z,30.00
2018-09-18T13:05:31.283Z,30.42
2018-09-18T13:07:58.869Z,30.59
2018-09-18T13:10:25.889Z,30.09
2018-09-18T13:12:52.949Z,30.03
2018-09-18T13:15:21.176Z,30.12
2018-09-18T13:20:15.657Z,29.67
2018-09-18T13:22:42.682Z,29.51
2018-09-18T13:25:09.908Z,29.30
2018-09-18T13:27:37.032Z,29.41
2018-09-18T13:30:04.576Z,29.69
2018-09-18T13:32:31.582Z,29.93
2018-09-18T13:34:58.419Z,29.79
2018-09-18T13:37:25.327Z,29.55
2018-09-18T13:39:52.255Z,29.97
2018-09-18T13:42:19.230Z,29.93
2018-09-18T13:44:46.180Z,30.39
2018-09-18T13:47:13.138Z,29.89
2018-09-18T13:49:40.065Z,30.26
2018-09-18T13:52:07.115Z,30.27
2018-09-18T13:54:34.083Z,30.23
2018-09-18T13:57:00.952Z,30.01
2018-09-18T13:59:27.947Z,30.13
2018-09-18T14:01:54.872Z,30.34
2018-09-18T14:04:21.867Z,30.44
2018-09-18T14:06:48.791Z,30.26
2018-09-18T14:09:15.771Z,30.30
2018-09-18T14:11:42.733Z,30.30
2018-09-18T14:14:09.683Z,30.34
2018-09-18T14:16:36.616Z,30.49
2018-09-18T14:19:03.583Z,30.95
2018-09-18T14:21:30.516Z,30.91
2018-09-18T14:23:57.476Z,30.42
2018-09-18T14:26:24.703Z,30.57
2018-09-18T14:28:51.492Z,30.76
2018-09-18T14:31:18.448Z,30.90
2018-09-18T14:33:45.436Z,31.11
2018-09-18T14:36:12.387Z,31.04
2018-09-18T14:38:39.349Z,31.29
2018-09-18T14:41:06.300Z,30.84
2018-09-18T14:43:33.245Z,31.00
2018-09-18T14:46:00.139Z,30.83
2018-09-18T14:48:27.060Z,30.83
2018-09-18T14:50:54.080Z,30.86
2018-09-18T14:53:21.075Z,30.82
2018-09-18T14:55:48.010Z,30.79
2018-09-18T14:58:14.988Z,30.72
2018-09-18T15:00:41.872Z,30.61
2018-09-18T15:03:09.520Z,30.77
2018-09-18T15:05:36.467Z,30.93
2018-09-18T15:08:03.512Z,30.92
2018-09-18T15:10:30.400Z,30.88
2018-09-18T15:12:57.342Z,30.88
2018-09-18T15:15:24.353Z,31.02
2018-09-18T15:17:51.243Z,30.81
2018-09-18T15:20:18.260Z,30.52
2018-09-18T15:22:45.444Z,30.57
2018-09-18T15:25:12.511Z,30.49
2018-09-18T15:27:39.584Z,30.53
2018-09-18T15:30:06.457Z,30.27
2018-09-18T15:32:33.448Z,30.13
2018-09-18T15:35:00.348Z,30.21
2018-09-18T15:37:27.311Z,30.76
2018-09-18T15:39:54.294Z,30.39
2018-09-18T15:42:21.220Z,30.30
2018-09-18T15:44:48.187Z,30.50
2018-09-18T15:47:15.065Z,30.37
2018-09-18T15:49:41.968Z,30.36
2018-09-18T15:52:08.965Z,30.10
2018-09-18T15:54:35.935Z,30.02
2018-09-18T15:57:02.809Z,29.96
2018-09-18T15:59:29.663Z,29.51
2018-09-18T16:01:56.616Z,29.26
2018-09-18T16:04:23.587Z,29.13
2018-09-18T16:06:50.507Z,28.96
2018-09-18T16:09:17.441Z,29.04
2018-09-18T16:11:44.358Z,28.77
2018-09-18T16:14:11.259Z,28.63
2018-09-18T16:16:38.268Z,28.54
2018-09-18T16:19:05.641Z,28.53
2018-09-18T16:21:32.524Z,28.37
2018-09-18T16:23:59.415Z,28.41
2018-09-18T16:26:26.376Z,28.40
2018-09-18T16:28:53.265Z,28.36
2018-09-18T16:31:20.191Z,28.20
2018-09-18T16:33:47.072Z,28.33
2018-09-18T16:36:13.983Z,28.19
2018-09-18T16:38:40.936Z,28.15
2018-09-18T16:41:07.906Z,28.16
2018-09-18T16:43:34.799Z,28.12
2018-09-18T16:46:01.793Z,28.14
2018-09-18T16:48:29.059Z,28.37
2018-09-18T16:50:55.941Z,28.11
2018-09-18T16:53:22.827Z,28.64
2018-09-18T16:55:49.747Z,28.27
2018-09-18T16:58:16.693Z,28.01
2018-09-18T17:00:43.684Z,28.01
2018-09-18T17:03:10.651Z,28.17
2018-09-18T17:05:37.597Z,28.15
2018-09-18T17:08:04.542Z,28.05
2018-09-18T17:10:31.508Z,27.93
2018-09-18T17:12:58.627Z,27.50
2018-09-18T17:15:25.525Z,27.24
2018-09-18T17:17:52.589Z,27.01
2018-09-18T17:20:19.541Z,26.68
2018-09-18T17:22:47.539Z,26.58
2018-09-18T17:25:14.456Z,26.87
2018-09-18T17:27:41.466Z,27.05
2018-09-18T17:30:08.396Z,26.93
2018-09-18T17:32:35.328Z,26.80
2018-09-18T17:35:03.177Z,26.82
2018-09-18T17:37:29.471Z,26.77
2018-09-18T17:39:56.493Z,26.83
2018-09-18T17:42:23.370Z,26.77
2018-09-18T17:44:50.926Z,26.78
2018-09-18T17:47:17.895Z,26.58
2018-09-18T17:49:44.859Z,26.49
2018-09-18T17:52:11.825Z,26.30
2018-09-18T17:54:38.730Z,26.20
2018-09-18T17:57:06.610Z,26.69
2018-09-18T17:59:35.033Z,26.12
2018-09-18T18:02:01.917Z,25.99
2018-09-18T18:04:28.851Z,25.77
2018-09-18T18:06:55.807Z,25.52
2018-09-18T18:09:22.767Z,25.60
2018-09-18T18:11:49.760Z,25.67
2018-09-18T18:14:16.732Z,25.61
2018-09-18T18:16:43.658Z,25.26
2018-09-18T18:19:10.643Z,25.32
2018-09-18T18:21:37.555Z,24.95
2018-09-18T18:24:04.446Z,24.91
2018-09-18T18:26:31.495Z,24.84
2018-09-18T18:28:58.369Z,24.72
2018-09-18T18:31:25.275Z,24.62
2018-09-18T18:33:52.289Z,25.07
2018-09-18T18:36:19.254Z,24.86
2018-09-18T18:38:46.183Z,25.14
2018-09-18T18:41:13.472Z,25.39
2018-09-18T18:43:41.248Z,25.05
2018-09-18T18:46:08.151Z,24.99
2018-09-18T18:48:36.234Z,25.02
2018-09-18T18:51:03.090Z,24.82
2018-09-18T18:53:30.947Z,24.76
2018-09-18T18:55:57.877Z,24.77
2018-09-18T18:58:24.838Z,24.74
2018-09-18T19:00:51.784Z,24.72
2018-09-18T19:03:18.752Z,24.49
2018-09-18T19:05:45.814Z,24.31
2018-09-18T19:08:12.760Z,24.15
2018-09-18T19:10:40.351Z,24.30
2018-09-18T19:13:07.271Z,24.23
2018-09-18T19:15:34.252Z,23.75
2018-09-18T19:18:01.460Z,23.17
2018-09-18T19:20:28.449Z,22.94
2018-09-18T19:22:55.518Z,23.34
2018-09-18T19:25:23.296Z,23.20
2018-09-18T19:27:50.271Z,23.47
2018-09-18T19:30:17.252Z,23.49
2018-09-18T19:32:44.255Z,23.51
2018-09-18T19:35:12.015Z,23.30
2018-09-18T19:37:39.009Z,23.26
2018-09-18T19:40:05.973Z,22.91
2018-09-18T19:42:32.900Z,22.83
2018-09-18T19:44:59.892Z,22.77
2018-09-18T19:47:27.077Z,22.66
2018-09-18T19:49:53.990Z,22.70
2018-09-18T19:52:21.027Z,22.38
2018-09-18T19:54:47.827Z,22.32
2018-09-18T19:57:15.759Z,22.28
2018-09-18T19:59:42.746Z,22.71
2018-09-18T20:02:09.969Z,22.31
2018-09-18T20:04:44.097Z,22.31
2018-09-18T20:07:11.131Z,22.40
2018-09-18T20:09:38.062Z,22.37
2018-09-18T20:12:05.083Z,22.31
2018-09-18T20:14:32.760Z,22.31
2018-09-18T20:16:59.760Z,22.27
2018-09-18T20:19:26.672Z,22.33
2018-09-18T20:21:53.658Z,22.42
2018-09-18T20:24:20.527Z,22.58
2018-09-18T20:26:47.462Z,22.61
2018-09-18T20:29:14.424Z,22.55
2018-09-18T20:31:41.309Z,22.59
2018-09-18T20:34:08.265Z,22.61
2018-09-18T20:36:35.204Z,22.70
2018-09-18T20:39:02.166Z,22.71
2018-09-18T20:41:29.078Z,22.61
2018-09-18T20:43:56.060Z,22.50
2018-09-18T20:46:23.187Z,22.54
2018-09-18T20:48:50.150Z,22.58
2018-09-18T20:51:17.040Z,22.45
2018-09-18T20:53:44.094Z,22.47
2018-09-18T20:56:11.057Z,22.40
2018-09-18T20:58:37.998Z,22.44
2018-09-18T21:01:04.993Z,22.39
2018-09-18T21:03:31.911Z,22.25
2018-09-18T21:05:58.861Z,22.65
2018-09-18T21:08:25.927Z,22.19
2018-09-18T21:10:52.743Z,22.10
2018-09-18T21:13:19.608Z,22.27
2018-09-18T21:15:46.508Z,22.28
2018-09-18T21:18:13.455Z,22.22
2018-09-18T21:20:40.454Z,22.02
2018-09-18T21:23:07.369Z,22.08
2018-09-18T21:25:56.892Z,21.91
2018-09-18T21:28:23.797Z,21.87
2018-09-18T21:30:50.695Z,22.18
2018-09-18T21:33:17.639Z,21.98
2018-09-18T21:35:44.668Z,21.96
2018-09-18T21:38:11.660Z,21.89
2018-09-18T21:40:38.625Z,21.72
2018-09-18T21:43:05.607Z,21.81
2018-09-18T21:45:32.508Z,21.71
2018-09-18T21:47:59.366Z,21.69
2018-09-18T21:50:26.388Z,21.72
2018-09-18T21:52:53.315Z,21.61
2018-09-18T21:55:20.177Z,21.32
2018-09-18T21:57:47.091Z,21.45
2018-09-18T22:00:14.051Z,21.27
2018-09-18T22:02:41.028Z,21.25
2018-09-18T22:05:07.973Z,21.35
2018-09-18T22:07:34.957Z,21.30
2018-09-18T22:10:01.853Z,21.36
2018-09-18T22:12:28.760Z,21.43
2018-09-18T22:14:55.690Z,21.50
2018-09-18T22:17:22.672Z,21.54
2018-09-18T22:19:49.625Z,21.63
2018-09-18T22:22:16.624Z,21.31
2018-09-18T22:24:43.525Z,21.47
2018-09-18T22:27:10.491Z,21.45
2018-09-18T22:29:37.501Z,21.41
2018-09-18T22:32:04.425Z,21.33
2018-09-18T22:34:31.298Z,21.16
2018-09-18T22:36:58.211Z,21.22
2018-09-18T22:39:25.175Z,21.09
2018-09-18T22:41:52.129Z,21.06
2018-09-18T22:44:19.090Z,20.79
2018-09-18T22:46:46.051Z,20.81
2018-09-18T22:49:12.900Z,20.85
2018-09-18T22:51:39.859Z,20.77
2018-09-18T22:54:06.835Z,20.84
2018-09-18T22:56:33.787Z,20.74
2018-09-18T22:59:00.720Z,20.73
2018-09-18T23:01:27.729Z,20.82
2018-09-18T23:03:54.771Z,20.87
2018-09-18T23:06:21.639Z,20.93
2018-09-18T23:08:48.570Z,20.96
2018-09-18T23:11:15.503Z,21.16
2018-09-18T23:13:42.489Z,20.99
2018-09-18T23:16:09.461Z,20.98
2018-09-18T23:18:36.384Z,20.90
2018-09-18T23:21:03.336Z,20.99
2018-09-18T23:23:30.303Z,20.90
2018-09-18T23:25:57.291Z,20.82
2018-09-18T23:28:25.251Z,20.90
2018-09-18T23:30:52.114Z,20.80
2018-09-18T23:33:19.039Z,20.68
2018-09-18T23:35:46.010Z,20.30
2018-09-18T23:38:12.956Z,20.40
2018-09-18T23:40:39.998Z,20.56
2018-09-18T23:43:06.806Z,20.56
2018-09-18T23:45:33.771Z,20.36
2018-09-18T23:48:00.697Z,20.21
2018-09-18T23:50:27.644Z,20.30
2018-09-18T23:52:54.630Z,20.33
2018-09-18T23:55:22.310Z,20.39
2018-09-18T23:57:49.233Z,20.47
